createdAt,value
2018-04-12T00:00:52.018Z,70.70
2018-04-12T00:01:52.104Z,72.30
2018-04-12T00:02:51.966Z,68.80
2018-04-12T00:03:51.957Z,71.40
2018-04-12T00:04:53.038Z,72.20
2018-04-12T00:05:51.902Z,71.90
2018-04-12T00:06:51.906Z,69.60
2018-04-12T00:07:51.879Z,72.20
2018-04-12T00:08:51.829Z,67.00
2018-04-12T00:09:51.800Z,70.60
2018-04-12T00:10:51.767Z,69.20
2018-04-12T00:11:51.753Z,66.90
2018-04-12T00:12:51.724Z,67.80
2018-04-12T00:13:52.758Z,68.80
2018-04-12T00:14:51.696Z,75.70
2018-04-12T00:15:51.746Z,71.60
2018-04-12T00:16:51.646Z,67.40
2018-04-12T00:17:51.672Z,70.70
2018-04-12T00:18:51.595Z,66.70
2018-04-12T00:19:58.440Z,67.40
2018-04-12T00:20:51.532Z,66.50
2018-04-12T00:21:51.518Z,65.90
2018-04-12T00:22:51.597Z,63.10
2018-04-12T00:23:51.474Z,65.30
2018-04-12T00:24:51.511Z,63.30
2018-04-12T00:25:51.413Z,63.20
2018-04-12T00:26:52.442Z,62.90
2018-04-12T00:27:51.368Z,63.00
2018-04-12T00:28:52.476Z,63.50
2018-04-12T00:29:51.317Z,63.00
2018-04-12T00:30:55.837Z,62.20
2018-04-12T00:31:51.291Z,65.00
2018-04-12T00:32:51.353Z,63.10
2018-04-12T00:33:51.211Z,60.80
2018-04-12T00:34:51.269Z,61.20
2018-04-12T00:35:51.171Z,62.80
2018-04-12T00:36:53.267Z,60.50
2018-04-12T00:37:51.124Z,61.10
2018-04-12T00:38:51.242Z,66.10
2018-04-12T00:39:51.083Z,60.60
2018-04-12T00:40:51.099Z,59.40
2018-04-12T00:41:51.054Z,60.40
2018-04-12T00:42:51.127Z,61.60
2018-04-12T00:43:50.999Z,57.30
2018-04-12T00:44:52.074Z,60.90
2018-04-12T00:45:50.916Z,58.10
2018-04-12T00:46:50.942Z,59.90
2018-04-12T00:47:50.892Z,59.10
2018-04-12T00:49:01.902Z,59.50
2018-04-12T00:49:50.852Z,61.10
2018-04-12T00:50:55.351Z,60.20
2018-04-12T00:51:50.801Z,61.80
2018-04-12T00:52:51.813Z,60.70
2018-04-12T00:53:50.768Z,59.80
2018-04-12T00:54:51.863Z,61.90
2018-04-12T00:55:50.719Z,64.60
2018-04-12T00:56:50.815Z,62.40
2018-04-12T00:57:50.651Z,63.30
2018-04-12T00:58:50.688Z,65.00
2018-04-12T00:59:50.637Z,62.00
2018-04-12T01:00:56.441Z,59.40
2018-04-12T01:01:50.573Z,58.80
2018-04-12T01:02:52.542Z,62.20
2018-04-12T01:03:50.495Z,57.50
2018-04-12T01:04:50.473Z,63.70
2018-04-12T01:05:50.553Z,63.50
2018-04-12T01:06:50.419Z,59.90
2018-04-12T01:07:50.420Z,60.50
2018-04-12T01:08:50.434Z,61.00
2018-04-12T01:09:50.353Z,62.20
2018-04-12T01:10:50.356Z,63.90
2018-04-12T01:11:50.303Z,60.00
2018-04-12T01:12:50.265Z,60.60
2018-04-12T01:13:50.253Z,62.50
2018-04-12T01:14:50.238Z,57.40
2018-04-12T01:15:50.234Z,60.30
2018-04-12T01:16:50.177Z,59.60
2018-04-12T01:17:50.185Z,60.20
2018-04-12T01:18:50.135Z,58.60
2018-04-12T01:19:50.113Z,61.10
2018-04-12T01:20:50.093Z,59.10
2018-04-12T01:21:50.058Z,58.90
2018-04-12T01:22:50.029Z,56.50
2018-04-12T01:23:50.010Z,58.30
2018-04-12T01:24:50.016Z,60.10
2018-04-12T01:25:49.964Z,55.40
2018-04-12T01:26:49.940Z,59.20
2018-04-12T01:27:49.933Z,59.30
2018-04-12T01:28:50.949Z,60.30
2018-04-12T01:29:49.875Z,55.10
2018-04-12T01:30:49.942Z,56.70
2018-04-12T01:31:49.832Z,59.70
2018-04-12T01:32:49.850Z,55.70
2018-04-12T01:33:49.764Z,57.90
2018-04-12T01:34:54.370Z,59.50
2018-04-12T01:35:49.733Z,62.10
2018-04-12T01:36:49.777Z,55.60
2018-04-12T01:37:49.687Z,57.50
2018-04-12T01:38:51.743Z,55.10
2018-04-12T01:39:49.641Z,59.90
2018-04-12T01:40:49.707Z,59.20
2018-04-12T01:41:49.596Z,56.30
2018-04-12T01:42:50.639Z,61.50
2018-04-12T01:43:49.541Z,57.00
2018-04-12T01:44:54.441Z,59.40
2018-04-12T01:45:49.475Z,59.90
2018-04-12T01:46:56.398Z,56.80
2018-04-12T01:47:49.440Z,58.60
2018-04-12T01:48:50.518Z,58.90
2018-04-12T01:49:49.372Z,58.30
2018-04-12T01:50:49.408Z,61.10
2018-04-12T01:51:49.339Z,55.80
2018-04-12T01:52:49.429Z,58.10
2018-04-12T01:53:49.293Z,55.50
2018-04-12T01:54:49.245Z,56.30
2018-04-12T01:55:49.231Z,53.70
2018-04-12T01:56:49.277Z,58.70
2018-04-12T01:57:49.169Z,57.60
2018-04-12T01:58:49.146Z,55.20
2018-04-12T01:59:49.133Z,59.10
2018-04-12T02:00:49.113Z,58.10
2018-04-12T02:01:49.081Z,60.40
2018-04-12T02:02:49.059Z,55.80
2018-04-12T02:03:49.033Z,59.60
2018-04-12T02:04:49.003Z,59.40
2018-04-12T02:05:48.991Z,54.40
2018-04-12T02:06:48.949Z,58.30
2018-04-12T02:07:48.932Z,57.30
2018-04-12T02:08:48.918Z,56.50
2018-04-12T02:09:48.897Z,60.50
2018-04-12T02:10:50.998Z,59.00
2018-04-12T02:11:48.863Z,58.10
2018-04-12T02:12:49.864Z,59.80
2018-04-12T02:13:48.799Z,58.10
2018-04-12T02:14:53.464Z,61.20
2018-04-12T02:15:48.744Z,59.00
2018-04-12T02:16:50.801Z,61.60
2018-04-12T02:17:48.691Z,60.40
2018-04-12T02:18:48.785Z,60.10
2018-04-12T02:19:48.670Z,65.00
2018-04-12T02:20:49.711Z,60.70
2018-04-12T02:21:48.608Z,58.90
2018-04-12T02:22:48.624Z,61.20
2018-04-12T02:23:48.620Z,60.80
2018-04-12T02:24:48.530Z,60.00
2018-04-12T02:25:48.521Z,60.60
2018-04-12T02:27:01.462Z,56.90
2018-04-12T02:27:48.450Z,59.00
2018-04-12T02:28:48.558Z,62.70
2018-04-12T02:29:48.393Z,55.20
2018-04-12T02:30:48.458Z,61.10
2018-04-12T02:31:48.361Z,60.20
2018-04-12T02:32:52.953Z,58.80
2018-04-12T02:33:48.324Z,61.60
2018-04-12T02:34:48.420Z,61.50
2018-04-12T02:35:48.234Z,62.80
2018-04-12T02:36:59.987Z,63.30
2018-04-12T02:37:48.199Z,64.00
2018-04-12T02:38:52.909Z,61.60
2018-04-12T02:39:48.196Z,64.00
2018-04-12T02:40:48.221Z,62.60
2018-04-12T02:41:48.103Z,65.90
2018-04-12T02:42:59.906Z,65.50
2018-04-12T02:43:48.067Z,64.50
2018-04-12T02:44:48.127Z,64.50
2018-04-12T02:45:48.037Z,65.10
2018-04-12T02:46:50.144Z,62.40
2018-04-12T02:47:47.971Z,68.20
2018-04-12T02:48:48.050Z,62.80
2018-04-12T02:49:47.911Z,65.90
2018-04-12T02:50:47.894Z,69.40
2018-04-12T02:51:52.495Z,68.10
2018-04-12T02:52:47.847Z,63.60
2018-04-12T02:53:47.807Z,68.20
2018-04-12T02:54:47.787Z,67.50
2018-04-12T02:55:47.839Z,69.80
2018-04-12T02:56:47.746Z,67.10
2018-04-12T02:57:47.711Z,63.50
2018-04-12T02:58:47.693Z,66.60
2018-04-12T02:59:47.661Z,66.80
2018-04-12T03:00:47.713Z,64.60
2018-04-12T03:01:47.623Z,67.40
2018-04-12T03:02:47.582Z,62.50
2018-04-12T03:03:47.602Z,67.80
2018-04-12T03:04:47.546Z,66.20
2018-04-12T03:05:47.511Z,68.40
2018-04-12T03:06:47.500Z,69.20
2018-04-12T03:07:47.489Z,69.70
2018-04-12T03:08:47.458Z,65.70
2018-04-12T03:09:47.431Z,66.90
2018-04-12T03:10:47.418Z,71.50
2018-04-12T03:11:47.361Z,67.80
2018-04-12T03:12:47.344Z,69.70
2018-04-12T03:13:47.307Z,65.70
2018-04-12T03:14:47.302Z,72.20
2018-04-12T03:15:47.273Z,74.20
2018-04-12T03:16:47.264Z,65.70
2018-04-12T03:17:47.335Z,72.80
2018-04-12T03:18:47.195Z,67.50
2018-04-12T03:19:47.183Z,65.40
2018-04-12T03:20:47.171Z,66.70
2018-04-12T03:21:47.127Z,66.40
2018-04-12T03:22:47.104Z,63.20
2018-04-12T03:23:47.078Z,72.40
2018-04-12T03:24:47.068Z,67.90
2018-04-12T03:25:47.021Z,67.10
2018-04-12T03:26:47.020Z,73.20
2018-04-12T03:27:47.008Z,69.90
2018-04-12T03:28:47.006Z,67.30
2018-04-12T03:29:46.983Z,68.70
2018-04-12T03:30:46.922Z,68.60
2018-04-12T03:31:46.958Z,74.60
2018-04-12T03:32:46.857Z,66.60
2018-04-12T03:33:46.846Z,67.20
2018-04-12T03:34:46.869Z,69.60
2018-04-12T03:35:46.776Z,71.10
2018-04-12T03:36:46.764Z,68.80
2018-04-12T03:37:46.741Z,72.30
2018-04-12T03:38:46.737Z,69.00
2018-04-12T03:39:46.702Z,73.40
2018-04-12T03:40:46.672Z,73.60
2018-04-12T03:41:46.714Z,73.50
2018-04-12T03:42:46.602Z,76.60
2018-04-12T03:43:48.598Z,72.30
2018-04-12T03:44:46.588Z,69.20
2018-04-12T03:45:53.438Z,74.90
2018-04-12T03:46:46.515Z,73.30
2018-04-12T03:47:46.604Z,78.10
2018-04-12T03:48:46.470Z,73.60
2018-04-12T03:49:46.507Z,73.30
2018-04-12T03:50:47.536Z,76.00
2018-04-12T03:51:46.404Z,79.20
2018-04-12T03:53:02.915Z,73.00
2018-04-12T03:53:46.334Z,76.40
2018-04-12T03:54:46.315Z,80.60
2018-04-12T03:55:57.909Z,81.30
2018-04-12T03:56:46.297Z,81.70
2018-04-12T03:57:48.312Z,78.70
2018-04-12T03:58:46.211Z,78.00
2018-04-12T03:59:46.294Z,81.00
2018-04-12T04:00:46.163Z,80.00
2018-04-12T04:01:50.999Z,78.20
2018-04-12T04:02:46.153Z,82.90
2018-04-12T04:03:46.125Z,78.10
2018-04-12T04:04:46.068Z,79.60
2018-04-12T04:05:51.988Z,83.70
2018-04-12T04:06:46.016Z,81.80
2018-04-12T04:07:56.895Z,81.50
2018-04-12T04:08:45.980Z,84.20
2018-04-12T04:09:52.970Z,83.30
2018-04-12T04:10:45.911Z,78.70
2018-04-12T04:11:45.922Z,86.80
2018-04-12T04:12:45.895Z,81.20
2018-04-12T04:13:45.933Z,86.50
2018-04-12T04:14:45.814Z,81.40
2018-04-12T04:15:51.473Z,82.20
2018-04-12T04:16:45.787Z,80.40
2018-04-12T04:17:51.509Z,87.70
2018-04-12T04:18:45.704Z,85.60
2018-04-12T04:19:52.442Z,88.30
2018-04-12T04:20:45.693Z,85.70
2018-04-12T04:21:46.723Z,92.50
2018-04-12T04:22:45.617Z,88.50
2018-04-12T04:23:51.456Z,86.80
2018-04-12T04:24:45.567Z,87.00
2018-04-12T04:25:47.561Z,90.20
2018-04-12T04:26:45.560Z,85.50
2018-04-12T04:27:46.584Z,88.40
2018-04-12T04:28:45.469Z,88.90
2018-04-12T04:29:46.489Z,84.00
2018-04-12T04:30:45.418Z,86.80
2018-04-12T04:31:49.997Z,87.70
2018-04-12T04:32:45.419Z,94.80
2018-04-12T04:33:45.446Z,95.30
2018-04-12T04:34:45.331Z,91.00
2018-04-12T04:35:45.293Z,96.00
2018-04-12T04:36:45.293Z,92.40
2018-04-12T04:37:45.236Z,85.70
2018-04-12T04:38:45.240Z,101.50
2018-04-12T04:39:45.209Z,97.60
2018-04-12T04:40:45.179Z,95.90
2018-04-12T04:41:45.135Z,94.10
2018-04-12T04:42:45.132Z,92.00
2018-04-12T04:43:45.097Z,101.70
2018-04-12T04:44:45.080Z,95.80
2018-04-12T04:45:45.030Z,95.10
2018-04-12T04:46:45.022Z,91.40
2018-04-12T04:47:45.040Z,96.40
2018-04-12T04:48:44.964Z,96.50
2018-04-12T04:49:44.964Z,93.80
2018-04-12T04:50:50.031Z,94.60
2018-04-12T04:51:44.911Z,94.00
2018-04-12T04:52:45.934Z,93.70
2018-04-12T04:53:44.873Z,97.60
2018-04-12T04:54:44.913Z,101.40
2018-04-12T04:55:44.790Z,94.00
2018-04-12T04:56:46.886Z,101.00
2018-04-12T04:57:44.834Z,93.50
2018-04-12T04:58:49.598Z,93.40
2018-04-12T04:59:44.697Z,95.10
2018-04-12T05:00:44.672Z,95.20
2018-04-12T05:01:44.728Z,95.20
2018-04-12T05:02:44.618Z,92.90
2018-04-12T05:03:51.509Z,93.60
2018-04-12T05:04:44.581Z,97.60
2018-04-12T05:05:57.465Z,93.50
2018-04-12T05:06:44.519Z,100.50
2018-04-12T05:07:50.500Z,92.00
2018-04-12T05:08:44.455Z,91.90
2018-04-12T05:09:45.504Z,95.30
2018-04-12T05:10:44.413Z,98.30
2018-04-12T05:11:44.445Z,92.00
2018-04-12T05:12:44.380Z,91.60
2018-04-12T05:13:44.332Z,94.90
2018-04-12T05:14:44.313Z,95.00
2018-04-12T05:15:44.334Z,99.60
2018-04-12T05:16:44.267Z,105.40
2018-04-12T05:17:44.250Z,93.70
2018-04-12T05:18:44.217Z,97.30
2018-04-12T05:19:44.212Z,98.60
2018-04-12T05:20:44.167Z,96.90
2018-04-12T05:21:44.151Z,94.80
2018-04-12T05:22:44.115Z,97.50
2018-04-12T05:23:46.157Z,102.50
2018-04-12T05:24:44.084Z,98.20
2018-04-12T05:25:54.991Z,106.10
2018-04-12T05:26:44.024Z,100.70
2018-04-12T05:27:44.031Z,97.50
2018-04-12T05:28:43.989Z,102.10
2018-04-12T05:29:44.024Z,98.70
2018-04-12T05:30:43.932Z,102.00
2018-04-12T05:31:46.049Z,98.90
2018-04-12T05:32:43.898Z,109.60
2018-04-12T05:33:45.036Z,104.30
2018-04-12T05:34:43.871Z,105.80
2018-04-12T05:35:45.907Z,99.10
2018-04-12T05:36:43.769Z,100.00
2018-04-12T05:37:43.771Z,105.30
2018-04-12T05:38:43.740Z,107.40
2018-04-12T05:39:43.748Z,104.30
2018-04-12T05:40:43.683Z,105.30
2018-04-12T05:41:49.488Z,102.70
2018-04-12T05:42:43.700Z,96.00
2018-04-12T05:43:54.518Z,103.00
2018-04-12T05:44:43.567Z,104.70
2018-04-12T05:45:43.575Z,102.70
2018-04-12T05:46:43.551Z,100.80
2018-04-12T05:47:48.507Z,97.00
2018-04-12T05:48:43.483Z,108.80
2018-04-12T05:49:49.477Z,99.00
2018-04-12T05:50:43.407Z,103.00
2018-04-12T05:51:43.553Z,109.00
2018-04-12T05:52:43.373Z,99.70
2018-04-12T05:53:43.511Z,98.20
2018-04-12T05:54:43.316Z,98.70
2018-04-12T05:55:43.337Z,107.50
2018-04-12T05:56:43.337Z,99.50
2018-04-12T05:57:43.428Z,99.50
2018-04-12T05:58:43.301Z,102.50
2018-04-12T05:59:59.024Z,101.90
2018-04-12T06:00:43.180Z,101.80
2018-04-12T06:01:43.173Z,98.50
2018-04-12T06:02:43.159Z,96.80
2018-04-12T06:03:43.090Z,96.70
2018-04-12T06:04:43.070Z,94.10
2018-04-12T06:05:43.055Z,97.30
2018-04-12T06:06:43.149Z,93.60
2018-04-12T06:07:43.011Z,98.30
2018-04-12T06:08:42.996Z,96.80
2018-04-12T06:09:42.931Z,93.40
2018-04-12T06:10:42.906Z,94.90
2018-04-12T06:11:42.903Z,94.80
2018-04-12T06:12:42.931Z,90.20
2018-04-12T06:13:42.826Z,90.50
2018-04-12T06:14:42.854Z,89.20
2018-04-12T06:15:42.851Z,92.10
2018-04-12T06:16:42.756Z,92.70
2018-04-12T06:17:42.805Z,92.10
2018-04-12T06:18:42.706Z,87.90
2018-04-12T06:19:42.888Z,88.50
2018-04-12T06:20:42.689Z,89.60
2018-04-12T06:21:42.669Z,87.80
2018-04-12T06:22:42.642Z,88.30
2018-04-12T06:23:42.614Z,88.40
2018-04-12T06:24:42.579Z,85.20
2018-04-12T06:25:42.616Z,83.30
2018-04-12T06:26:42.581Z,87.00
2018-04-12T06:27:42.472Z,87.50
2018-04-12T06:28:42.487Z,81.70
2018-04-12T06:29:42.446Z,80.50
2018-04-12T06:30:42.440Z,82.20
2018-04-12T06:31:42.435Z,87.30
2018-04-12T06:32:42.386Z,84.50
2018-04-12T06:33:42.383Z,80.40
2018-04-12T06:34:42.307Z,82.60
2018-04-12T06:35:42.311Z,84.60
2018-04-12T06:36:42.305Z,78.10
2018-04-12T06:37:42.259Z,86.90
2018-04-12T06:38:43.334Z,83.30
2018-04-12T06:39:42.204Z,86.60
2018-04-12T06:40:42.183Z,84.60
2018-04-12T06:41:42.156Z,80.50
2018-04-12T06:42:43.135Z,84.70
2018-04-12T06:43:42.099Z,80.60
2018-04-12T06:44:42.054Z,81.60
2018-04-12T06:45:42.040Z,77.70
2018-04-12T06:46:42.086Z,80.40
2018-04-12T06:47:41.969Z,84.20
2018-04-12T06:48:42.120Z,79.60
2018-04-12T06:49:41.951Z,75.90
2018-04-12T06:50:41.921Z,81.90
2018-04-12T06:51:41.888Z,80.90
2018-04-12T06:52:41.846Z,81.10
2018-04-12T06:53:41.973Z,83.60
2018-04-12T06:54:41.868Z,78.30
2018-04-12T06:55:41.787Z,80.80
2018-04-12T06:56:41.768Z,79.30
2018-04-12T06:57:41.738Z,81.80
2018-04-12T06:58:41.720Z,81.80
2018-04-12T06:59:41.694Z,79.30
2018-04-12T07:00:41.738Z,79.00
2018-04-12T07:01:41.681Z,80.50
2018-04-12T07:02:41.609Z,82.50
2018-04-12T07:03:41.590Z,78.60
2018-04-12T07:04:41.598Z,77.80
2018-04-12T07:05:41.525Z,75.20
2018-04-12T07:06:41.545Z,77.90
2018-04-12T07:07:41.488Z,75.10
2018-04-12T07:08:41.458Z,81.50
2018-04-12T07:09:41.459Z,80.20
2018-04-12T07:10:41.401Z,79.40
2018-04-12T07:11:41.474Z,78.80
2018-04-12T07:12:41.344Z,82.40
2018-04-12T07:13:41.349Z,79.10
2018-04-12T07:14:41.307Z,82.80
2018-04-12T07:15:41.272Z,76.90
2018-04-12T07:16:41.375Z,75.20
2018-04-12T07:17:41.225Z,76.00
2018-04-12T07:18:41.227Z,71.50
2018-04-12T07:19:41.177Z,73.80
2018-04-12T07:20:41.151Z,67.10
2018-04-12T07:21:41.161Z,74.60
2018-04-12T07:22:41.127Z,70.60
2018-04-12T07:23:41.115Z,79.20
2018-04-12T07:24:41.075Z,69.60
2018-04-12T07:25:41.029Z,70.00
2018-04-12T07:26:40.985Z,69.00
2018-04-12T07:27:41.017Z,71.70
2018-04-12T07:28:45.975Z,75.00
2018-04-12T07:29:40.965Z,70.50
2018-04-12T07:30:55.547Z,71.90
2018-04-12T07:31:40.914Z,78.20
2018-04-12T07:32:40.956Z,71.70
2018-04-12T07:33:40.852Z,70.60
2018-04-12T07:34:42.875Z,70.10
2018-04-12T07:35:40.781Z,67.90
2018-04-12T07:36:42.875Z,72.40
2018-04-12T07:37:40.720Z,69.60
2018-04-12T07:38:45.572Z,74.10
2018-04-12T07:39:40.768Z,70.10
2018-04-12T07:40:42.825Z,67.60
2018-04-12T07:41:40.668Z,69.50
2018-04-12T07:42:47.586Z,77.20
2018-04-12T07:43:40.642Z,69.50
2018-04-12T07:44:40.590Z,69.10
2018-04-12T07:45:40.567Z,66.60
2018-04-12T07:46:40.523Z,70.00
2018-04-12T07:47:40.534Z,70.80
2018-04-12T07:48:57.595Z,71.50
2018-04-12T07:49:40.437Z,64.80
2018-04-12T07:50:45.067Z,69.70
2018-04-12T07:51:40.401Z,66.90
2018-04-12T07:52:41.505Z,62.80
2018-04-12T07:53:40.393Z,63.00
2018-04-12T07:54:42.399Z,62.90
2018-04-12T07:55:40.254Z,63.80
2018-04-12T07:57:06.057Z,58.60
2018-04-12T07:57:40.292Z,63.40
2018-04-12T07:59:02.253Z,57.10
2018-04-12T07:59:40.221Z,59.60
2018-04-12T08:01:05.026Z,58.20
2018-04-12T08:01:40.180Z,55.30
2018-04-12T08:02:47.062Z,61.60
2018-04-12T08:03:40.129Z,58.90
2018-04-12T08:04:40.179Z,61.60
2018-04-12T08:05:40.007Z,57.30
2018-04-12T08:06:55.100Z,54.70
2018-04-12T08:07:40.024Z,56.80
2018-04-12T08:09:00.988Z,55.50
2018-04-12T08:09:39.976Z,55.10
2018-04-12T08:10:39.891Z,56.60
2018-04-12T08:11:40.082Z,59.00
2018-04-12T08:12:39.841Z,57.40
2018-04-12T08:13:40.929Z,59.30
2018-04-12T08:14:39.785Z,59.00
2018-04-12T08:15:45.567Z,56.10
2018-04-12T08:16:39.783Z,59.90
2018-04-12T08:17:56.583Z,56.20
2018-04-12T08:18:39.718Z,57.90
2018-04-12T08:19:45.495Z,53.40
2018-04-12T08:20:39.828Z,59.20
2018-04-12T08:21:39.726Z,59.70
2018-04-12T08:22:45.577Z,53.30
2018-04-12T08:23:39.601Z,56.90
2018-04-12T08:24:45.546Z,54.00
2018-04-12T08:25:43.057Z,59.20
2018-04-12T08:26:39.488Z,55.40
2018-04-12T08:27:39.533Z,55.30
2018-04-12T08:28:39.421Z,56.20
2018-04-12T08:29:39.402Z,55.20
2018-04-12T08:30:39.401Z,54.20
2018-04-12T08:31:39.595Z,58.70
2018-04-12T08:32:39.348Z,61.60
2018-04-12T08:33:39.317Z,53.90
2018-04-12T08:34:39.288Z,55.50
2018-04-12T08:35:39.250Z,56.20
2018-04-12T08:36:39.236Z,53.10
2018-04-12T08:37:39.212Z,58.30
2018-04-12T08:38:39.197Z,54.60
2018-04-12T08:39:39.199Z,53.40
2018-04-12T08:40:39.155Z,55.60
2018-04-12T08:41:39.092Z,62.60
2018-04-12T08:42:39.083Z,56.90
2018-04-12T08:43:39.064Z,56.50
2018-04-12T08:44:39.021Z,53.50
2018-04-12T08:45:38.990Z,64.30
2018-04-12T08:46:39.016Z,55.10
2018-04-12T08:47:38.982Z,54.70
2018-04-12T08:48:39.970Z,57.70
2018-04-12T08:49:38.907Z,54.80
2018-04-12T08:50:38.874Z,53.40
2018-04-12T08:51:38.855Z,54.00
2018-04-12T08:52:38.847Z,53.60
2018-04-12T08:53:38.797Z,59.20
2018-04-12T08:54:38.874Z,53.10
2018-04-12T08:55:38.749Z,52.20
2018-04-12T08:56:39.803Z,56.10
2018-04-12T08:57:38.733Z,52.30
2018-04-12T08:58:39.713Z,53.80
2018-04-12T08:59:38.690Z,56.20
2018-04-12T09:00:38.700Z,51.70
2018-04-12T09:01:38.590Z,56.40
2018-04-12T09:02:38.578Z,51.60
2018-04-12T09:03:38.575Z,50.80
2018-04-12T09:04:38.518Z,53.00
2018-04-12T09:05:38.665Z,50.50
2018-04-12T09:06:38.473Z,54.40
2018-04-12T09:07:38.569Z,56.20
2018-04-12T09:08:38.416Z,55.70
2018-04-12T09:09:38.386Z,52.30
2018-04-12T09:10:38.370Z,52.40
2018-04-12T09:11:38.358Z,52.70
2018-04-12T09:12:38.315Z,56.20
2018-04-12T09:13:38.305Z,53.90
2018-04-12T09:14:40.329Z,53.40
2018-04-12T09:15:38.240Z,56.20
2018-04-12T09:16:38.254Z,50.80
2018-04-12T09:17:38.197Z,54.40
2018-04-12T09:18:38.170Z,52.50
2018-04-12T09:19:38.178Z,52.80
2018-04-12T09:20:38.132Z,52.50
2018-04-12T09:21:38.107Z,51.70
2018-04-12T09:22:38.171Z,55.20
2018-04-12T09:23:38.065Z,51.40
2018-04-12T09:24:38.044Z,56.10
2018-04-12T09:25:38.009Z,53.30
2018-04-12T09:26:37.965Z,53.10
2018-04-12T09:27:39.077Z,52.30
2018-04-12T09:28:37.914Z,52.00
2018-04-12T09:29:37.989Z,50.30
2018-04-12T09:30:37.900Z,50.10
2018-04-12T09:31:37.841Z,53.10
2018-04-12T09:32:43.376Z,50.10
2018-04-12T09:33:37.791Z,49.30
2018-04-12T09:34:37.765Z,46.30
2018-04-12T09:35:37.733Z,51.20
2018-04-12T09:36:37.714Z,52.50
2018-04-12T09:37:39.795Z,46.50
2018-04-12T09:38:37.667Z,44.80
2018-04-12T09:39:37.649Z,46.10
2018-04-12T09:40:37.632Z,46.40
2018-04-12T09:41:37.695Z,44.80
2018-04-12T09:42:37.567Z,45.30
2018-04-12T09:43:37.569Z,44.00
2018-04-12T09:44:37.530Z,46.00
2018-04-12T09:45:37.622Z,44.80
2018-04-12T09:46:37.454Z,43.30
2018-04-12T09:47:37.493Z,42.80
2018-04-12T09:48:37.443Z,46.80
2018-04-12T09:49:39.477Z,44.40
2018-04-12T09:50:37.373Z,43.10
2018-04-12T09:51:37.416Z,46.70
2018-04-12T09:52:37.300Z,41.80
2018-04-12T09:53:38.347Z,44.40
2018-04-12T09:54:37.284Z,43.10
2018-04-12T09:55:37.347Z,45.90
2018-04-12T09:56:37.206Z,43.30
2018-04-12T09:57:37.250Z,43.40
2018-04-12T09:58:37.153Z,43.50
2018-04-12T09:59:37.167Z,44.30
2018-04-12T10:00:37.112Z,40.90
2018-04-12T10:01:37.076Z,40.20
2018-04-12T10:02:37.073Z,42.50
2018-04-12T10:03:37.054Z,40.20
2018-04-12T10:04:37.004Z,41.20
2018-04-12T10:05:37.140Z,42.70
2018-04-12T10:06:36.991Z,42.10
2018-04-12T10:07:37.012Z,41.50
2018-04-12T10:08:36.920Z,41.00
2018-04-12T10:09:36.917Z,43.30
2018-04-12T10:10:36.855Z,40.70
2018-04-12T10:11:36.844Z,40.10
2018-04-12T10:12:36.849Z,42.70
2018-04-12T10:13:36.783Z,45.70
2018-04-12T10:14:36.851Z,42.40
2018-04-12T10:15:36.743Z,41.00
2018-04-12T10:16:36.793Z,42.20
2018-04-12T10:17:36.694Z,38.10
2018-04-12T10:18:36.763Z,40.80
2018-04-12T10:19:36.684Z,40.70
2018-04-12T10:20:36.670Z,40.50
2018-04-12T10:21:36.593Z,37.70
2018-04-12T10:22:36.585Z,40.80
2018-04-12T10:23:36.592Z,38.80
2018-04-12T10:24:36.502Z,40.10
2018-04-12T10:25:36.583Z,38.60
2018-04-12T10:26:36.474Z,38.10
2018-04-12T10:27:36.506Z,36.30
2018-04-12T10:28:36.422Z,39.40
2018-04-12T10:29:36.419Z,41.60
2018-04-12T10:30:36.348Z,37.10
2018-04-12T10:31:36.437Z,36.40
2018-04-12T10:32:36.305Z,36.30
2018-04-12T10:33:36.362Z,38.30
2018-04-12T10:34:36.249Z,40.60
2018-04-12T10:35:36.220Z,36.60
2018-04-12T10:36:36.217Z,40.90
2018-04-12T10:37:36.182Z,38.70
2018-04-12T10:38:36.303Z,38.90
2018-04-12T10:39:36.128Z,39.90
2018-04-12T10:40:36.119Z,41.20
2018-04-12T10:41:36.125Z,37.80
2018-04-12T10:42:36.060Z,37.20
2018-04-12T10:43:36.024Z,37.30
2018-04-12T10:44:36.011Z,37.20
2018-04-12T10:45:35.986Z,42.10
2018-04-12T10:46:35.974Z,38.40
2018-04-12T10:47:35.922Z,41.50
2018-04-12T10:48:35.913Z,42.90
2018-04-12T10:49:36.045Z,40.40
2018-04-12T10:50:35.867Z,34.30
2018-04-12T10:51:35.959Z,39.50
2018-04-12T10:52:35.800Z,38.10
2018-04-12T10:53:35.970Z,39.10
2018-04-12T10:54:35.759Z,36.10
2018-04-12T10:55:36.908Z,36.40
2018-04-12T10:56:35.686Z,37.70
2018-04-12T10:57:35.818Z,42.80
2018-04-12T10:58:35.639Z,37.70
2018-04-12T10:59:35.641Z,36.80
2018-04-12T11:00:35.711Z,36.50
2018-04-12T11:01:35.571Z,35.90
2018-04-12T11:02:35.556Z,36.70
2018-04-12T11:03:35.530Z,37.80
2018-04-12T11:04:35.504Z,40.50
2018-04-12T11:05:35.640Z,41.90
2018-04-12T11:06:35.443Z,34.00
2018-04-12T11:07:35.415Z,35.60
2018-04-12T11:08:35.400Z,36.20
2018-04-12T11:09:35.377Z,35.60
2018-04-12T11:10:35.352Z,37.00
2018-04-12T11:11:35.316Z,38.50
2018-04-12T11:12:35.286Z,44.70
2018-04-12T11:13:35.269Z,34.60
2018-04-12T11:14:35.399Z,37.80
2018-04-12T11:15:35.244Z,36.80
2018-04-12T11:16:35.411Z,34.00
2018-04-12T11:17:35.281Z,36.50
2018-04-12T11:18:36.351Z,36.60
2018-04-12T11:19:35.132Z,34.00
2018-04-12T11:20:35.130Z,44.20
2018-04-12T11:21:35.093Z,40.40
2018-04-12T11:22:35.043Z,37.80
2018-04-12T11:23:35.079Z,36.60
2018-04-12T11:24:37.117Z,38.50
2018-04-12T11:25:35.054Z,40.20
2018-04-12T11:26:39.600Z,39.20
2018-04-12T11:27:34.957Z,36.30
2018-04-12T11:28:41.555Z,38.30
2018-04-12T11:29:34.979Z,36.50
2018-04-12T11:30:41.598Z,37.90
2018-04-12T11:31:34.871Z,38.30
2018-04-12T11:32:35.971Z,38.50
2018-04-12T11:33:34.834Z,37.10
2018-04-12T11:34:35.859Z,40.10
2018-04-12T11:35:34.804Z,36.50
2018-04-12T11:36:34.846Z,38.20
2018-04-12T11:37:34.719Z,36.30
2018-04-12T11:38:34.791Z,41.20
2018-04-12T11:39:34.718Z,36.20
2018-04-12T11:40:35.806Z,39.90
2018-04-12T11:41:34.593Z,41.10
2018-04-12T11:42:55.810Z,39.30
2018-04-12T11:43:34.611Z,41.30
2018-04-12T11:44:34.553Z,47.20
2018-04-12T11:45:41.120Z,39.40
2018-04-12T11:46:34.481Z,41.70
2018-04-12T11:48:46.872Z,39.80
2018-04-12T11:50:08.035Z,42.10
2018-04-12T11:50:46.835Z,39.50
2018-04-12T11:52:03.746Z,41.70
2018-04-12T11:52:46.861Z,41.10
2018-04-12T11:54:10.824Z,39.80
2018-04-12T11:54:46.735Z,42.50
2018-04-12T11:56:15.836Z,41.30
2018-04-12T11:56:46.694Z,41.40
2018-04-12T11:57:52.772Z,37.90
2018-04-12T11:58:46.607Z,41.70
2018-04-12T11:59:53.302Z,40.00
2018-04-12T12:00:46.610Z,39.60
2018-04-12T12:02:16.309Z,42.20
2018-04-12T12:02:46.602Z,41.70
2018-04-12T12:03:47.730Z,38.80
2018-04-12T12:04:46.493Z,39.90
2018-04-12T12:06:01.239Z,38.20
2018-04-12T12:06:46.392Z,38.10
2018-04-12T12:07:48.432Z,38.80
2018-04-12T12:08:46.406Z,40.20
2018-04-12T12:10:11.197Z,40.40
2018-04-12T12:10:46.398Z,40.30
2018-04-12T12:11:52.175Z,37.70
2018-04-12T12:12:46.306Z,40.40
2018-04-12T12:13:59.179Z,42.00
2018-04-12T12:14:46.229Z,43.80
2018-04-12T12:16:03.165Z,41.80
2018-04-12T12:16:46.179Z,40.20
2018-04-12T12:17:46.198Z,40.80
2018-04-12T12:18:48.272Z,42.30
2018-04-12T12:19:46.098Z,44.20
2018-04-12T12:20:51.704Z,41.90
2018-04-12T12:21:46.056Z,42.30
2018-04-12T12:22:48.036Z,42.90
2018-04-12T12:23:45.997Z,40.70
2018-04-12T12:24:48.091Z,41.30
2018-04-12T12:25:45.966Z,44.30
2018-04-12T12:39:24.775Z,41.70
2018-04-12T12:40:22.933Z,40.50
2018-04-12T12:41:29.829Z,49.80
2018-04-12T12:42:22.862Z,43.10
2018-04-12T12:43:27.817Z,42.40
2018-04-12T12:44:22.798Z,47.10
2018-04-12T12:45:24.888Z,45.20
2018-04-12T12:46:22.794Z,42.60
2018-04-12T12:47:34.325Z,45.40
2018-04-12T12:48:22.717Z,46.30
2018-04-12T12:49:29.317Z,45.10
2018-04-12T12:50:22.672Z,47.10
2018-04-12T12:51:27.367Z,45.00
2018-04-12T12:52:22.653Z,47.20
2018-04-12T12:53:22.722Z,47.90
2018-04-12T12:54:22.560Z,45.50
2018-04-12T12:55:22.527Z,47.00
2018-04-12T12:56:22.503Z,49.30
2018-04-12T12:57:22.493Z,43.20
2018-04-12T12:58:22.484Z,44.60
2018-04-12T12:59:22.436Z,46.90
2018-04-12T13:00:22.472Z,49.30
2018-04-12T13:01:22.427Z,47.50
2018-04-12T13:02:22.480Z,48.30
2018-04-12T13:03:22.341Z,46.50
2018-04-12T13:04:22.340Z,46.30
2018-04-12T13:05:22.417Z,46.30